createdAt,value
2022-09-07T00:08:55.635Z,100399.69
2022-09-07T00:19:03.910Z,100387.53
2022-09-07T00:29:08.228Z,100373.13
2022-09-07T00:39:12.121Z,100370.94
2022-09-07T00:49:19.674Z,100372.22
2022-09-07T00:59:25.352Z,100371.66
2022-09-07T01:09:28.162Z,100369.31
2022-09-07T01:19:54.720Z,100360.00
2022-09-07T01:30:07.538Z,100356.66
2022-09-07T01:40:22.026Z,100357.72
2022-09-07T01:50:58.371Z,100339.91
2022-09-07T02:01:08.398Z,100332.16
2022-09-07T02:11:16.490Z,100342.59
2022-09-07T02:21:26.532Z,100332.19
2022-09-07T02:31:28.856Z,100331.50
2022-09-07T02:41:33.307Z,100321.47
2022-09-07T02:52:05.555Z,100314.00
2022-09-07T03:02:34.399Z,100308.03
2022-09-07T03:12:46.464Z,100306.53
2022-09-07T03:22:49.568Z,100306.59
2022-09-07T03:32:51.753Z,100312.41
2022-09-07T03:42:53.453Z,100309.75
2022-09-07T03:52:55.158Z,100320.16
2022-09-07T04:02:56.784Z,100328.09
2022-09-07T04:12:58.614Z,100334.94
2022-09-07T04:23:00.367Z,100338.97
2022-09-07T04:33:02.063Z,100340.75
2022-09-07T04:43:05.556Z,100339.59
2022-09-07T04:53:07.259Z,100351.50
2022-09-07T05:03:09.339Z,100357.22
2022-09-07T05:13:11.021Z,100346.16
2022-09-07T05:23:12.882Z,100365.69
2022-09-07T05:33:14.529Z,100373.75
2022-09-07T05:43:16.444Z,100369.44
2022-09-07T05:53:20.013Z,100384.06
2022-09-07T06:03:22.282Z,100393.31
2022-09-07T06:13:24.434Z,100374.56
2022-09-07T06:23:26.967Z,100379.22
2022-09-07T06:33:28.937Z,100388.91
2022-09-07T06:43:31.214Z,100380.97
2022-09-07T06:53:35.200Z,100375.44
2022-09-07T07:03:38.154Z,100381.31
2022-09-07T07:13:41.506Z,100375.63
2022-09-07T07:23:43.744Z,100376.91
2022-09-07T07:33:47.145Z,100387.16
2022-09-07T07:43:54.060Z,100378.19
2022-09-07T07:53:56.634Z,100369.25
2022-09-07T08:03:58.499Z,100362.91
2022-09-07T08:14:02.278Z,100367.75
2022-09-07T08:24:04.197Z,100370.16
2022-09-07T08:34:07.609Z,100360.41
2022-09-07T08:44:14.293Z,100357.94
2022-09-07T08:54:17.081Z,100346.94
2022-09-07T09:04:23.552Z,100334.84
2022-09-07T09:14:58.215Z,100325.41
2022-09-07T09:25:14.665Z,100330.94
2022-09-07T09:35:36.472Z,100334.47
2022-09-07T09:56:07.672Z,100307.66
2022-09-07T10:06:16.769Z,100304.25
2022-09-07T10:16:19.512Z,100302.03
2022-09-07T10:26:29.061Z,100283.38
2022-09-07T10:36:39.456Z,100292.94
2022-09-07T10:46:59.963Z,100279.78
2022-09-07T10:57:20.470Z,100285.59
2022-09-07T11:07:25.310Z,100272.38
2022-09-07T11:17:30.195Z,100263.59
2022-09-07T11:27:45.297Z,100252.81
2022-09-07T11:38:01.629Z,100244.94
2022-09-07T11:48:30.344Z,100239.69
2022-09-07T11:58:58.084Z,100238.78
2022-09-07T12:09:44.597Z,100225.81
2022-09-07T12:19:46.467Z,100219.34
2022-09-07T12:29:58.094Z,100224.72
2022-09-07T12:40:34.701Z,100218.44
2022-09-07T12:50:55.358Z,100215.97
2022-09-07T13:01:09.417Z,100197.94
2022-09-07T13:11:37.475Z,100199.59
2022-09-07T13:21:49.024Z,100188.53
2022-09-07T13:32:21.041Z,100191.97
2022-09-07T13:42:29.568Z,100175.44
2022-09-07T13:52:43.112Z,100174.84
2022-09-07T14:02:56.791Z,100154.28
2022-09-07T14:13:12.415Z,100147.88
2022-09-07T14:23:28.423Z,100142.66
2022-09-07T14:33:33.663Z,100146.00
2022-09-07T14:43:51.999Z,100142.41
2022-09-07T14:54:02.832Z,100141.84
2022-09-07T15:04:17.525Z,100130.31
2022-09-07T15:14:21.382Z,100127.44
2022-09-07T15:24:24.072Z,100125.69
2022-09-07T15:34:25.771Z,100121.28
2022-09-07T15:44:28.538Z,100133.91
2022-09-07T15:54:31.103Z,100129.53
2022-09-07T16:04:38.517Z,100132.59
2022-09-07T16:14:56.451Z,100139.41
2022-09-07T16:25:00.541Z,100122.53
2022-09-07T16:35:02.462Z,100124.69
2022-09-07T16:55:26.528Z,100102.25
2022-09-07T17:05:28.631Z,100085.31
2022-09-07T17:15:37.027Z,100085.66
2022-09-07T17:25:40.483Z,100098.13
2022-09-07T17:35:42.273Z,100096.53
2022-09-07T17:45:44.247Z,100105.91
2022-09-07T17:55:46.215Z,100125.88
2022-09-07T18:05:53.959Z,100130.47
2022-09-07T18:15:57.000Z,100150.03
2022-09-07T18:25:59.064Z,100153.78
2022-09-07T18:36:06.940Z,100153.34
2022-09-07T18:46:15.804Z,100147.69
2022-09-07T18:56:22.852Z,100139.19
2022-09-07T19:06:25.696Z,100140.59
2022-09-07T19:16:28.773Z,100124.97
2022-09-07T19:26:36.409Z,100123.03
2022-09-07T19:36:39.413Z,100119.09
2022-09-07T19:46:45.187Z,100115.53
2022-09-07T19:56:48.035Z,100123.66
2022-09-07T20:06:51.629Z,100121.91
2022-09-07T20:16:53.802Z,100131.09
2022-09-07T20:36:59.794Z,100122.06
2022-09-07T20:47:01.642Z,100121.97
2022-09-07T20:57:04.245Z,100114.97
2022-09-07T21:07:07.257Z,100103.06
2022-09-07T21:17:21.275Z,100100.75
2022-09-07T21:27:23.975Z,100104.19
2022-09-07T21:37:25.780Z,100111.13
2022-09-07T21:47:28.541Z,100100.16
2022-09-07T21:57:30.448Z,100101.47
2022-09-07T22:07:33.981Z,100102.16
2022-09-07T22:17:46.168Z,100118.13
2022-09-07T22:27:48.415Z,100105.88
2022-09-07T22:37:50.451Z,100105.72
2022-09-07T22:47:51.962Z,100104.38
2022-09-07T22:57:55.629Z,100091.88
2022-09-07T23:07:57.286Z,100077.06
2022-09-07T23:18:01.789Z,100074.81
2022-09-07T23:28:04.524Z,100062.34
2022-09-07T23:38:06.218Z,100044.25
2022-09-07T23:48:07.813Z,100030.72
2022-09-07T23:58:10.014Z,100040.31
